Hallett, OK (74034)

11:06 AM CDT del 01 Settembre 2015 (GMT -0500)
PAWNEE | | Change Station
CLOSE
Current Station
Stazione meteo personale
Location: Jennings, OK
Altitudine: 925 ft
Stazioni meteo nelle vicinanze

Alt. 925 ft 36.24 °N, 96.60 °W | Updated 18 seconds ago

Sereno
Sereno
87.3 °F
Sembra 91 °F
N
3.1
Vento Variabile Vento da Ovest
Gusts 3.8 mph

Oggi
Massima -- | Minima -- °F
--% Possibilità di precip.
Ieri
Massima -- | Minima -- °F
Precip. -- in
6:57 AM 7:54 PM
Gobba a levante, 88% visible
Pressione 30.05 in
Visibilità -9999.0 miglia
Nuvole Sereno
Indice di calore 91 °F
Punto di rugiada 68 °F
Umidità 53%
Piovosità 0.00 in
Spessore del manto nevoso Non disponibile.
Raggi UV 6 fuori da 12
Polline 9.80 fuori da 12
Qualità dell'aria Non disponibile.
Flu Activity Non disponibile.
METAR KCUH 011555Z AUTO 17003KT CLR 27/22 A3005 RMK AO2 PWINO
Pressione 30.05 in
Visibilità -9999.0 miglia
Nuvole Sereno
Indice di calore 91 °F
Punto di rugiada 68 °F
Umidità 53%
Piovosità 0.00 in
Spessore del manto nevoso Non disponibile.
Raggi UV 6 fuori da 12
Polline 9.80 fuori da 12
Qualità dell'aria Non disponibile.
Flu Activity Non disponibile.
METAR KCUH 011555Z AUTO 17003KT CLR 27/22 A3005 RMK AO2 PWINO

10-Day Weather Forecast

×

Almanac

Astronomia

Sep. 01, 2015 Alba Tramonto
Ora attuale
Crepuscolo civile
Crepuscolo nautico
Crepuscolo astronomico
Luna
Estensione della luce visibile
Lunghezza del giorno
Tomorrow will be .
, % of the Moon is Illuminated

Gli estremi di oggi

State Highs State Lows

Community

WunderPhotos

Upload Photos

1,851,541 foto caricate!

WunderBlogs® & News

Nearby

Qualità dell'aria

  Qualità dell'aria Indice AQ Inquinante
Not available.

Profondità neve

Stazione Profondità Altitudine

Attività sismica

Città  Distanza Mag. Data & Ora
Minimo Magnitudo Mostrato è 2.5.

Temperature delle acque costiere

Località Temperatura

Stations

Stazioni meteo nelle vicinanze

Ubicazione della stazione Temp. Raffreddamento del vento Punto di rugiada Umidità Vento Precip. Alt. Aggiornato Tipo